Magnitogorsk, Russia
Current Conditions -  °F | °C
As of 6:00 PM on Tuesday 27 Jan 2015 (Local Time) from USCM Reporting Station
Broken Clouds Broken Clouds  
Wind Chill: -1°   Ceiling: 20000
Heat Index: 14°   Visibility: 6mi
Dew Point: -4°   Wind: 13mph
Humidity: 45%   Direction: 220°SW
Pressure: 30.48"   Gusts: NA
Location:  53.42°N, 58.97°E
Report Text: USCM 271200Z 22006MPS 9999 BKN200 M10/M20 Q1032 NOSIG 19090060RMK QFE736
Loading
Personal Weather Stations






























Interactive Weather Map New forecast layout! Learn more

10-Day Weather Forecast

Advertisements
Track Severe Weather on mobile